createdAt,value
2022-11-16T00:00:05.560Z,6.2
2022-11-16T00:03:00.962Z,6.1
2022-11-16T00:04:00.961Z,6.2
2022-11-16T00:05:00.960Z,6
2022-11-16T00:06:00.955Z,6.1
2022-11-16T00:07:00.990Z,5.9
2022-11-16T00:08:01.003Z,6.1
2022-11-16T00:10:01.050Z,5.9
2022-11-16T00:12:00.988Z,6
2022-11-16T00:14:00.976Z,6
2022-11-16T00:17:00.969Z,5.8
2022-11-16T00:20:00.977Z,6
2022-11-16T00:22:01.000Z,5.7
2022-11-16T00:23:01.004Z,5.8
2022-11-16T00:25:00.963Z,5.8
2022-11-16T00:26:00.950Z,5.7
2022-11-16T00:27:00.984Z,5.8
2022-11-16T00:28:01.037Z,5.7
2022-11-16T00:31:01.007Z,5.6
2022-11-16T00:32:00.999Z,5.7
2022-11-16T00:33:01.013Z,5.6
2022-11-16T00:35:01.006Z,5.7
2022-11-16T00:36:01.020Z,5.6
2022-11-16T00:37:01.019Z,5.7
2022-11-16T00:38:01.034Z,5.5
2022-11-16T00:40:00.964Z,5.7
2022-11-16T00:41:00.957Z,5.8
2022-11-16T00:42:00.974Z,5.5
2022-11-16T00:43:00.971Z,5.6
2022-11-16T00:48:00.979Z,5.7
2022-11-16T00:51:01.038Z,5.8
2022-11-16T00:53:01.006Z,5.7
2022-11-16T00:55:00.985Z,5.7
2022-11-16T00:56:00.970Z,5.9
2022-11-16T00:57:01.032Z,5.8
2022-11-16T00:59:00.964Z,5.8
2022-11-16T01:00:01.200Z,5.6
2022-11-16T01:03:00.977Z,5.7
2022-11-16T01:04:00.970Z,5.6
2022-11-16T01:06:01.069Z,5.5
2022-11-16T01:13:00.978Z,5.6
2022-11-16T01:14:01.007Z,5.5
2022-11-16T01:15:01.050Z,5.4
2022-11-16T01:17:00.996Z,5.5
2022-11-16T01:19:00.975Z,5.5
2022-11-16T01:23:01.072Z,5.4
2022-11-16T01:24:00.960Z,5.5
2022-11-16T01:25:00.974Z,5.6
2022-11-16T01:27:00.967Z,5.4
2022-11-16T01:29:00.971Z,5.6
2022-11-16T01:30:01.198Z,5.4
2022-11-16T01:32:00.997Z,5.6
2022-11-16T01:34:01.099Z,5.5
2022-11-16T01:37:00.993Z,5.6
2022-11-16T01:39:00.964Z,5.5
2022-11-16T01:45:01.065Z,5.4
2022-11-16T01:47:00.957Z,5.4
2022-11-16T01:49:00.950Z,5.5
2022-11-16T01:50:01.024Z,5.4
2022-11-16T01:52:00.974Z,5.5
2022-11-16T01:53:00.968Z,5.4
2022-11-16T01:55:01.133Z,5.5
2022-11-16T01:57:00.999Z,5.4
2022-11-16T01:58:00.957Z,5.5
2022-11-16T02:00:01.073Z,5.4
2022-11-16T02:01:01.109Z,5.5
2022-11-16T02:03:00.969Z,5.4
2022-11-16T02:04:00.971Z,5.5
2022-11-16T02:08:00.970Z,5.6
2022-11-16T02:09:00.977Z,5.5
2022-11-16T02:10:00.980Z,5.4
2022-11-16T02:11:00.989Z,5.5
2022-11-16T02:13:01.003Z,5.5
2022-11-16T02:16:00.964Z,5.7
2022-11-16T02:17:01.055Z,5.5
2022-11-16T02:20:00.999Z,5.7
2022-11-16T02:21:00.967Z,5.6
2022-11-16T02:25:00.982Z,5.5
2022-11-16T02:26:01.000Z,5.6
2022-11-16T02:29:00.991Z,5.6
2022-11-16T02:31:00.996Z,5.8
2022-11-16T02:34:00.998Z,5.7
2022-11-16T02:36:01.001Z,5.9
2022-11-16T02:37:01.017Z,5.7
2022-11-16T02:39:00.953Z,5.9
2022-11-16T02:40:00.989Z,5.8
2022-11-16T02:42:01.011Z,5.9
2022-11-16T02:43:01.011Z,5.8
2022-11-16T02:46:00.963Z,5.8
2022-11-16T02:48:01.030Z,6
2022-11-16T02:50:00.951Z,6.1
2022-11-16T02:51:00.970Z,5.9
2022-11-16T02:53:00.986Z,5.9
2022-11-16T02:54:01.042Z,6
2022-11-16T02:58:00.982Z,5.9
2022-11-16T03:00:01.026Z,6
2022-11-16T03:01:01.088Z,6.1
2022-11-16T03:06:00.971Z,5.9
2022-11-16T03:08:00.970Z,6.1
2022-11-16T03:09:00.957Z,5.9
2022-11-16T03:10:01.004Z,6
2022-11-16T03:12:00.965Z,5.9
2022-11-16T03:14:01.028Z,6
2022-11-16T03:17:00.972Z,5.8
2022-11-16T03:18:01.019Z,5.9
2022-11-16T03:20:01.001Z,6.1
2022-11-16T03:22:00.964Z,5.9
2022-11-16T03:23:00.990Z,6
2022-11-16T03:24:00.953Z,5.9
2022-11-16T03:26:00.929Z,6.1
2022-11-16T03:27:01.019Z,5.9
2022-11-16T03:29:01.010Z,6
2022-11-16T03:30:01.193Z,5.9
2022-11-16T03:42:01.005Z,5.8
2022-11-16T03:43:00.961Z,6
2022-11-16T03:44:00.973Z,5.9
2022-11-16T03:49:00.969Z,6
2022-11-16T03:50:00.949Z,5.8
2022-11-16T03:51:01.044Z,5.9
2022-11-16T03:56:00.970Z,5.8
2022-11-16T03:57:00.963Z,5.7
2022-11-16T04:01:01.061Z,5.6
2022-11-16T04:02:00.957Z,5.8
2022-11-16T04:03:00.969Z,5.7
2022-11-16T04:05:00.968Z,5.8
2022-11-16T04:06:00.965Z,5.7
2022-11-16T04:10:00.960Z,5.8
2022-11-16T04:14:03.075Z,5.7
2022-11-16T04:15:01.089Z,5.8
2022-11-16T04:19:00.953Z,5.6
2022-11-16T04:20:01.019Z,5.7
2022-11-16T04:22:00.976Z,5.7
2022-11-16T04:24:00.972Z,5.7
2022-11-16T04:26:00.963Z,5.8
2022-11-16T04:28:00.956Z,5.7
2022-11-16T04:29:00.961Z,5.6
2022-11-16T04:31:01.070Z,5.5
2022-11-16T04:34:00.975Z,5.8
2022-11-16T04:35:01.016Z,5.6
2022-11-16T04:37:00.952Z,5.6
2022-11-16T04:40:00.962Z,5.5
2022-11-16T04:42:00.968Z,5.6
2022-11-16T04:45:01.127Z,5.7
2022-11-16T04:48:01.006Z,5.6
2022-11-16T04:50:00.995Z,5.7
2022-11-16T04:52:00.953Z,5.6
2022-11-16T04:53:00.945Z,5.7
2022-11-16T05:00:01.184Z,5.6
2022-11-16T05:02:00.978Z,5.8
2022-11-16T05:06:01.015Z,5.7
2022-11-16T05:08:00.965Z,5.7
2022-11-16T05:11:00.963Z,5.8
2022-11-16T05:12:00.966Z,5.6
2022-11-16T05:13:00.973Z,5.7
2022-11-16T05:15:01.068Z,5.6
2022-11-16T05:18:00.967Z,5.7
2022-11-16T05:19:01.012Z,5.6
2022-11-16T05:22:00.969Z,5.8
2022-11-16T05:24:00.960Z,5.6
2022-11-16T05:26:00.967Z,5.7
2022-11-16T05:27:01.006Z,5.5
2022-11-16T05:29:00.972Z,5.6
2022-11-16T05:30:01.042Z,5.5
2022-11-16T05:33:00.963Z,5.5
2022-11-16T05:34:00.971Z,5.8
2022-11-16T05:35:00.997Z,5.6
2022-11-16T05:37:01.034Z,5.7
2022-11-16T05:38:01.037Z,5.6
2022-11-16T05:49:01.004Z,5.6
2022-11-16T05:51:00.996Z,5.6
2022-11-16T05:57:01.006Z,5.6
2022-11-16T06:01:00.968Z,5.6
2022-11-16T06:02:01.039Z,5.7
2022-11-16T06:04:00.988Z,5.6
2022-11-16T06:08:00.978Z,5.7
2022-11-16T06:09:01.037Z,5.6
2022-11-16T06:11:00.947Z,5.6
2022-11-16T06:14:00.952Z,5.7
2022-11-16T06:15:01.179Z,5.6
2022-11-16T06:17:00.934Z,5.6
2022-11-16T06:19:00.943Z,5.7
2022-11-16T06:22:01.136Z,5.6
2022-11-16T06:24:00.982Z,5.7
2022-11-16T06:25:00.980Z,5.6
2022-11-16T06:27:00.968Z,5.7
2022-11-16T06:28:04.083Z,5.6
2022-11-16T06:29:01.044Z,5.7
2022-11-16T06:33:01.025Z,5.8
2022-11-16T06:37:01.054Z,5.7
2022-11-16T06:39:00.945Z,5.8
2022-11-16T06:40:00.983Z,5.7
2022-11-16T06:41:00.945Z,5.9
2022-11-16T06:43:00.980Z,5.8
2022-11-16T06:44:00.991Z,5.7
2022-11-16T06:48:00.983Z,5.6
2022-11-16T06:50:01.009Z,5.6
2022-11-16T06:51:01.001Z,5.7
2022-11-16T06:53:01.017Z,5.5
2022-11-16T06:57:00.977Z,5.6
2022-11-16T07:00:01.116Z,5.5
2022-11-16T07:04:01.055Z,5.6
2022-11-16T07:06:01.020Z,5.7
2022-11-16T07:07:01.064Z,5.8
2022-11-16T07:08:01.000Z,5.6
2022-11-16T07:10:00.980Z,5.8
2022-11-16T07:11:04.104Z,5.7
2022-11-16T07:13:00.986Z,5.8
2022-11-16T07:15:01.163Z,5.8
2022-11-16T07:17:04.018Z,5.8
2022-11-16T07:19:01.037Z,5.8
2022-11-16T07:21:01.013Z,5.7
2022-11-16T07:25:00.950Z,5.9
2022-11-16T07:26:00.965Z,5.7
2022-11-16T07:28:00.961Z,5.8
2022-11-16T07:29:00.999Z,5.7
2022-11-16T07:30:01.076Z,5.8
2022-11-16T07:33:00.986Z,5.8
2022-11-16T07:35:01.021Z,5.8
2022-11-16T07:37:00.947Z,6
2022-11-16T07:38:00.977Z,5.9
2022-11-16T07:41:00.986Z,6
2022-11-16T07:43:01.033Z,5.9
2022-11-16T07:45:01.092Z,6.1
2022-11-16T07:48:01.020Z,6.1
2022-11-16T07:49:01.049Z,6.2
2022-11-16T07:52:01.033Z,6.1
2022-11-16T07:54:01.030Z,6.1
2022-11-16T07:56:01.147Z,6.2
2022-11-16T07:58:01.031Z,6.3
2022-11-16T08:01:00.948Z,6.2
2022-11-16T08:02:01.022Z,6.1
2022-11-16T08:03:01.032Z,6.3
2022-11-16T08:04:00.979Z,6.1
2022-11-16T08:06:01.038Z,6.3
2022-11-16T08:07:01.088Z,6.4
2022-11-16T08:09:01.004Z,6.4
2022-11-16T08:12:00.979Z,6.3
2022-11-16T08:13:00.984Z,6.4
2022-11-16T08:14:00.978Z,6.5
2022-11-16T08:15:01.083Z,6.4
2022-11-16T08:18:00.943Z,6.4
2022-11-16T08:20:00.976Z,6.5
2022-11-16T08:22:00.970Z,6.3
2022-11-16T08:23:01.005Z,6.5
2022-11-16T08:25:00.986Z,6.5
2022-11-16T08:26:00.970Z,6.4
2022-11-16T08:27:00.974Z,6.6
2022-11-16T08:28:01.016Z,6.5
2022-11-16T08:31:01.014Z,6.4
2022-11-16T08:38:00.968Z,6.5
2022-11-16T08:39:01.021Z,6.4
2022-11-16T08:42:01.012Z,6.5
2022-11-16T08:44:00.966Z,6.5
2022-11-16T08:46:01.024Z,6.4
2022-11-16T08:49:01.113Z,6.3
2022-11-16T08:51:16.780Z,6.4
2022-11-16T08:52:00.999Z,6.3
2022-11-16T08:54:01.022Z,6.4
2022-11-16T08:57:01.040Z,6.4
2022-11-16T09:01:01.018Z,6.4
2022-11-16T09:03:01.040Z,6.3
2022-11-16T09:04:01.045Z,6.2
2022-11-16T09:08:00.958Z,6.3
2022-11-16T09:09:01.004Z,6.4
2022-11-16T09:10:01.038Z,6.5
2022-11-16T09:14:01.003Z,6.4
2022-11-16T09:15:01.182Z,6.2
2022-11-16T09:18:00.979Z,6.2
2022-11-16T09:19:01.045Z,6.3
2022-11-16T09:21:01.017Z,6.4
2022-11-16T09:23:00.978Z,6.3
2022-11-16T09:24:00.982Z,6.4
2022-11-16T09:28:01.029Z,6.5
2022-11-16T09:29:01.012Z,6.4
2022-11-16T09:30:01.130Z,6.5
2022-11-16T09:32:01.002Z,6.5
2022-11-16T09:33:00.996Z,6.4
2022-11-16T09:35:00.995Z,6.7
2022-11-16T09:37:00.976Z,6.6
2022-11-16T09:38:01.035Z,6.7
2022-11-16T09:42:00.974Z,6.6
2022-11-16T09:43:01.061Z,6.7
2022-11-16T09:45:01.045Z,6.8
2022-11-16T09:49:01.028Z,7
2022-11-16T09:51:00.979Z,6.9
2022-11-16T09:54:00.985Z,7
2022-11-16T09:56:00.974Z,7.1
2022-11-16T09:57:01.014Z,7.2
2022-11-16T09:59:00.977Z,7.1
2022-11-16T10:01:01.038Z,7.2
2022-11-16T10:02:00.974Z,7.1
2022-11-16T10:03:01.035Z,7.2
2022-11-16T10:06:01.027Z,7.1
2022-11-16T10:07:01.093Z,7.3
2022-11-16T10:09:00.947Z,7.3
2022-11-16T10:10:01.005Z,7.2
2022-11-16T10:11:01.041Z,7.3
2022-11-16T10:14:04.123Z,7.4
2022-11-16T10:16:00.982Z,7.3
2022-11-16T10:17:01.005Z,7.4
2022-11-16T10:20:00.991Z,7.3
2022-11-16T10:21:01.101Z,7.4
2022-11-16T10:23:01.007Z,7.5
2022-11-16T10:25:00.978Z,7.5
2022-11-16T10:26:00.964Z,7.7
2022-11-16T10:27:00.997Z,7.6
2022-11-16T10:28:00.973Z,7.7
2022-11-16T10:29:00.947Z,7.6
2022-11-16T10:30:01.175Z,7.7
2022-11-16T10:33:00.989Z,7.6
2022-11-16T10:34:00.947Z,7.8
2022-11-16T10:36:01.119Z,7.7
2022-11-16T10:38:00.969Z,7.7
2022-11-16T10:41:01.009Z,7.8
2022-11-16T10:43:00.986Z,7.7
2022-11-16T10:44:01.087Z,7.9
2022-11-16T10:46:00.958Z,7.7
2022-11-16T10:47:01.007Z,7.8
2022-11-16T10:49:00.974Z,7.7
2022-11-16T10:50:01.002Z,7.8
2022-11-16T10:51:01.012Z,7.9
2022-11-16T10:54:00.967Z,8
2022-11-16T10:55:01.032Z,7.8
2022-11-16T10:58:00.936Z,7.9
2022-11-16T10:59:00.982Z,7.7
2022-11-16T11:01:01.020Z,7.8
2022-11-16T11:02:00.963Z,8
2022-11-16T11:03:00.948Z,7.9
2022-11-16T11:06:00.934Z,8
2022-11-16T11:08:01.021Z,7.8
2022-11-16T11:11:00.971Z,7.9
2022-11-16T11:12:00.971Z,8
2022-11-16T11:13:00.957Z,7.8
2022-11-16T11:14:00.967Z,7.9
2022-11-16T11:15:01.121Z,8
2022-11-16T11:17:00.957Z,8.1
2022-11-16T11:22:00.971Z,8.2
2022-11-16T11:23:01.038Z,8.1
2022-11-16T11:26:00.988Z,8.3
2022-11-16T11:31:01.067Z,8.4
2022-11-16T11:38:04.881Z,8.6
2022-11-16T11:40:01.131Z,8.6
2022-11-16T11:42:01.052Z,8.6
2022-11-16T11:45:01.072Z,8.7
2022-11-16T11:46:01.034Z,8.5
2022-11-16T11:50:00.980Z,8.5
2022-11-16T11:51:01.151Z,8.8
2022-11-16T11:54:00.963Z,8.8
2022-11-16T11:55:00.976Z,8.7
2022-11-16T11:57:00.964Z,8.6
2022-11-16T11:58:01.018Z,8.7
2022-11-16T11:59:01.003Z,8.6
2022-11-16T12:00:01.093Z,8.5
2022-11-16T12:02:01.007Z,8.6
2022-11-16T12:03:01.025Z,8.4
2022-11-16T12:04:01.018Z,8.5
2022-11-16T12:06:01.027Z,8.4
2022-11-16T12:07:01.111Z,8.3
2022-11-16T12:08:01.002Z,8.4
2022-11-16T12:10:01.014Z,8.3
2022-11-16T12:14:01.011Z,8.4
2022-11-16T12:16:00.968Z,8.3
2022-11-16T12:17:01.968Z,8.4
2022-11-16T12:19:00.976Z,8.5
2022-11-16T12:20:01.023Z,8.4
2022-11-16T12:22:00.997Z,8.4
2022-11-16T12:23:03.883Z,8.3
2022-11-16T12:24:00.973Z,8.4
2022-11-16T12:25:01.074Z,8.5
2022-11-16T12:27:01.004Z,8.2
2022-11-16T12:32:00.991Z,8.1
2022-11-16T12:36:01.021Z,8.2
2022-11-16T12:38:00.974Z,8.1
2022-11-16T12:39:00.974Z,8
2022-11-16T12:40:00.982Z,8.2
2022-11-16T12:41:00.982Z,8.1
2022-11-16T12:42:00.995Z,8.2
2022-11-16T12:44:00.992Z,8.1
2022-11-16T12:45:01.055Z,8
2022-11-16T12:48:00.999Z,8.2
2022-11-16T12:50:00.956Z,8
2022-11-16T12:51:00.964Z,8.2
2022-11-16T12:52:01.015Z,8.1
2022-11-16T12:54:01.185Z,8.2
2022-11-16T12:55:27.681Z,8.1
2022-11-16T12:59:01.059Z,8.3
2022-11-16T13:01:01.006Z,8.2
2022-11-16T13:04:01.029Z,8.3
2022-11-16T13:05:01.023Z,8.2
2022-11-16T13:07:01.977Z,8.2
2022-11-16T13:10:00.980Z,8.1
2022-11-16T13:11:00.999Z,8.3
2022-11-16T13:13:22.236Z,8.1
2022-11-16T13:15:01.086Z,8.2
2022-11-16T13:17:00.967Z,8.1
2022-11-16T13:18:00.986Z,8.2
2022-11-16T13:20:00.947Z,8.1
2022-11-16T13:21:00.999Z,8.2
2022-11-16T13:22:01.002Z,8.3
2022-11-16T13:24:01.026Z,8
2022-11-16T13:26:00.984Z,8.2
2022-11-16T13:28:00.962Z,8
2022-11-16T13:31:01.130Z,8.2
2022-11-16T13:33:00.988Z,8.3
2022-11-16T13:34:01.016Z,8.1
2022-11-16T13:37:00.945Z,8
2022-11-16T13:38:00.965Z,8.2
2022-11-16T13:40:00.954Z,8
2022-11-16T13:41:00.987Z,8.2
2022-11-16T13:43:01.055Z,8
2022-11-16T13:45:01.207Z,8
2022-11-16T13:55:00.920Z,8.1
2022-11-16T13:57:01.030Z,8
2022-11-16T14:00:01.164Z,8
2022-11-16T14:02:01.004Z,8.1
2022-11-16T14:04:00.998Z,8.2
2022-11-16T14:07:01.127Z,8.2
2022-11-16T14:09:00.973Z,8.2
2022-11-16T14:11:01.013Z,8
2022-11-16T14:13:00.991Z,8.2
2022-11-16T14:14:00.996Z,8
2022-11-16T14:15:03.717Z,8.1
2022-11-16T14:20:00.961Z,8.1
2022-11-16T14:22:00.954Z,8
2022-11-16T14:23:00.958Z,8.1
2022-11-16T14:25:00.995Z,8.1
2022-11-16T14:27:01.006Z,8
2022-11-16T14:30:01.005Z,8.1
2022-11-16T14:32:01.046Z,8.1
2022-11-16T14:39:00.952Z,8.1
2022-11-16T14:41:01.022Z,8
2022-11-16T14:46:01.009Z,7.9
2022-11-16T14:48:00.949Z,7.8
2022-11-16T14:49:00.966Z,7.9
2022-11-16T14:51:01.005Z,7.9
2022-11-16T14:53:01.027Z,7.9
2022-11-16T14:55:01.004Z,8
2022-11-16T14:59:01.009Z,8
2022-11-16T15:00:01.018Z,7.9
2022-11-16T15:02:00.980Z,8
2022-11-16T15:04:00.967Z,8
2022-11-16T15:05:00.998Z,7.9
2022-11-16T15:08:01.008Z,8
2022-11-16T15:09:01.004Z,7.8
2022-11-16T15:11:00.932Z,8
2022-11-16T15:12:00.971Z,7.8
2022-11-16T15:14:00.961Z,8
2022-11-16T15:15:01.074Z,7.7
2022-11-16T15:17:01.002Z,7.9
2022-11-16T15:19:01.070Z,7.7
2022-11-16T15:21:01.007Z,7.9
2022-11-16T15:22:01.021Z,7.8
2022-11-16T15:24:15.794Z,7.7
2022-11-16T15:27:00.995Z,7.8
2022-11-16T15:28:01.035Z,7.7
2022-11-16T15:31:01.014Z,7.7
2022-11-16T15:32:01.052Z,7.8
2022-11-16T15:34:00.946Z,7.5
2022-11-16T15:35:05.071Z,7.7
2022-11-16T15:37:00.984Z,7.6
2022-11-16T15:38:00.959Z,7.7
2022-11-16T15:40:01.005Z,7.5
2022-11-16T15:42:03.901Z,7.5
2022-11-16T15:43:01.042Z,7.6
2022-11-16T15:47:00.977Z,7.7
2022-11-16T15:48:01.014Z,7.4
2022-11-16T15:50:01.003Z,7.8
2022-11-16T15:52:01.005Z,7.6
2022-11-16T15:53:00.982Z,7.5
2022-11-16T15:54:00.992Z,7.6
2022-11-16T15:56:01.034Z,7.5
2022-11-16T16:00:01.168Z,7.6
2022-11-16T16:02:01.046Z,7.5
2022-11-16T16:06:00.995Z,7.6
2022-11-16T16:07:01.078Z,7.5
2022-11-16T16:08:01.015Z,7.4
2022-11-16T16:11:00.953Z,7.6
2022-11-16T16:13:00.998Z,7.5
2022-11-16T16:14:01.001Z,7.6
2022-11-16T16:15:01.241Z,7.5
2022-11-16T16:17:01.013Z,7.7
2022-11-16T16:20:00.997Z,7.6
2022-11-16T16:28:00.933Z,7.7
2022-11-16T16:29:00.960Z,7.5
2022-11-16T16:31:01.070Z,7.7
2022-11-16T16:34:01.014Z,7.7
2022-11-16T16:36:01.009Z,7.6
2022-11-16T16:38:01.050Z,7.5
2022-11-16T16:39:00.953Z,7.6
2022-11-16T16:41:00.987Z,7.5
2022-11-16T16:44:00.991Z,7.7
2022-11-16T16:45:01.178Z,7.5
2022-11-16T16:47:00.962Z,7.5
2022-11-16T16:48:01.020Z,7.6
2022-11-16T16:52:00.996Z,7.6
2022-11-16T16:57:00.955Z,7.7
2022-11-16T16:58:00.987Z,7.5
2022-11-16T16:59:00.944Z,7.6
2022-11-16T17:05:00.972Z,7.7
2022-11-16T17:08:01.014Z,7.6
2022-11-16T17:09:01.003Z,7.5
2022-11-16T17:13:01.072Z,7.4
2022-11-16T17:16:01.023Z,7.6
2022-11-16T17:17:00.993Z,7.5
2022-11-16T17:20:01.046Z,7.5
2022-11-16T17:24:01.052Z,7.4
2022-11-16T17:25:01.033Z,7.6
2022-11-16T17:27:01.056Z,7.5
2022-11-16T17:31:00.982Z,7.6
2022-11-16T17:32:00.992Z,7.5
2022-11-16T17:34:01.058Z,7.3
2022-11-16T17:36:00.945Z,7.3
2022-11-16T17:37:01.020Z,7.5
2022-11-16T17:39:00.998Z,7.4
2022-11-16T17:40:00.963Z,7.6
2022-11-16T17:41:00.974Z,7.5
2022-11-16T17:43:00.982Z,7.6
2022-11-16T17:44:00.996Z,7.5
2022-11-16T17:46:00.987Z,7.6
2022-11-16T17:48:01.000Z,7.5
2022-11-16T17:49:00.991Z,7.4
2022-11-16T17:51:00.956Z,7.5
2022-11-16T17:54:01.025Z,7.6
2022-11-16T17:56:01.007Z,7.6
2022-11-16T17:57:00.951Z,7.5
2022-11-16T17:59:00.980Z,7.5
2022-11-16T18:01:01.092Z,7.6
2022-11-16T18:02:01.009Z,7.5
2022-11-16T18:04:00.962Z,7.5
2022-11-16T18:05:00.934Z,7.6
2022-11-16T18:07:01.128Z,7.5
2022-11-16T18:09:01.244Z,7.5
2022-11-16T18:14:00.964Z,7.4
2022-11-16T18:15:26.788Z,7.5
2022-11-16T18:16:00.991Z,7.4
2022-11-16T18:20:00.972Z,7.3
2022-11-16T18:22:00.986Z,7.4
2022-11-16T18:27:00.982Z,7.3
2022-11-16T18:28:01.022Z,7.5
2022-11-16T18:30:01.132Z,7.4
2022-11-16T18:31:01.052Z,7.3
2022-11-16T18:33:00.977Z,7.3
2022-11-16T18:35:00.963Z,7.4
2022-11-16T18:36:01.008Z,7.3
2022-11-16T18:37:02.021Z,7.4
2022-11-16T18:38:00.968Z,7.5
2022-11-16T18:39:00.969Z,7.4
2022-11-16T18:41:01.050Z,7.6
2022-11-16T18:43:00.976Z,7.5
2022-11-16T18:44:00.954Z,7.4
2022-11-16T18:46:01.015Z,7.5
2022-11-16T18:50:00.934Z,7.6
2022-11-16T18:51:01.037Z,7.5
2022-11-16T18:53:00.925Z,7.5
2022-11-16T18:58:01.018Z,7.4
2022-11-16T19:07:01.015Z,7.4
2022-11-16T19:09:00.965Z,7.4
2022-11-16T19:12:00.986Z,7.6
2022-11-16T19:14:01.240Z,7.5
2022-11-16T19:21:00.960Z,7.4
2022-11-16T19:23:00.982Z,7.4
2022-11-16T19:24:00.998Z,7.5
2022-11-16T19:27:00.980Z,7.4
2022-11-16T19:33:01.065Z,7.4
2022-11-16T19:37:00.994Z,7.4
2022-11-16T19:38:00.988Z,7.5
2022-11-16T19:39:01.210Z,7.4
2022-11-16T19:41:01.039Z,7.5
2022-11-16T19:42:01.040Z,7.6
2022-11-16T19:44:01.037Z,7.4
2022-11-16T19:45:01.169Z,7.3
2022-11-16T19:48:01.013Z,7.3
2022-11-16T19:53:01.024Z,7.4
2022-11-16T19:55:01.030Z,7.4
2022-11-16T19:58:00.971Z,7.4
2022-11-16T19:59:00.968Z,7.3
2022-11-16T20:05:01.017Z,7.2
2022-11-16T20:06:01.043Z,7.3
2022-11-16T20:08:00.954Z,7.5
2022-11-16T20:09:01.216Z,7.3
2022-11-16T20:11:00.946Z,7.2
2022-11-16T20:12:00.971Z,7.3
2022-11-16T20:13:01.021Z,7.2
2022-11-16T20:14:01.080Z,7.3
2022-11-16T20:17:00.990Z,7.2
2022-11-16T20:18:00.987Z,7.3
2022-11-16T20:19:00.968Z,7.2
2022-11-16T20:20:00.984Z,7.1
2022-11-16T20:21:00.992Z,7.3
2022-11-16T20:22:00.949Z,7.2
2022-11-16T20:25:01.031Z,7.3
2022-11-16T20:31:01.237Z,7.2
2022-11-16T20:33:01.076Z,7.2
2022-11-16T20:35:01.048Z,7.3
2022-11-16T20:37:00.956Z,7.1
2022-11-16T20:38:01.004Z,7.2
2022-11-16T20:39:00.974Z,7.3
2022-11-16T20:40:01.034Z,7.2
2022-11-16T20:47:01.017Z,7.3
2022-11-16T20:49:00.956Z,7.2
2022-11-16T20:51:01.092Z,7.3
2022-11-16T20:53:00.972Z,7.3
2022-11-16T20:54:00.957Z,7.2
2022-11-16T20:55:00.941Z,7.1
2022-11-16T20:56:00.989Z,7.2
2022-11-16T20:58:01.019Z,7.2
2022-11-16T21:01:01.130Z,7.3
2022-11-16T21:03:00.937Z,7.3
2022-11-16T21:04:00.978Z,7.1
2022-11-16T21:05:01.023Z,7.2
2022-11-16T21:07:01.026Z,7.2
2022-11-16T21:11:01.031Z,7.2
2022-11-16T21:13:01.034Z,7.2
2022-11-16T21:19:00.957Z,7.2
2022-11-16T21:21:00.964Z,7.1
2022-11-16T21:23:01.000Z,7.2
2022-11-16T21:26:00.982Z,7.1
2022-11-16T21:32:01.095Z,7.2
2022-11-16T21:33:01.028Z,7.1
2022-11-16T21:37:00.969Z,7.2
2022-11-16T21:40:01.002Z,7.1
2022-11-16T21:42:00.995Z,7.1
2022-11-16T21:44:00.979Z,7.2
2022-11-16T21:46:00.973Z,7.1
2022-11-16T21:47:00.968Z,7.2
2022-11-16T21:51:00.975Z,7.2
2022-11-16T21:53:00.957Z,7.1
2022-11-16T21:54:00.996Z,7.2
2022-11-16T21:57:00.986Z,7.2
2022-11-16T21:59:00.956Z,7.1
2022-11-16T22:02:00.968Z,7.2
2022-11-16T22:03:01.011Z,7.1
2022-11-16T22:04:01.003Z,7.2
2022-11-16T22:06:00.955Z,7.1
2022-11-16T22:09:00.937Z,7.1
2022-11-16T22:11:00.923Z,7.2
2022-11-16T22:12:05.043Z,7.3
2022-11-16T22:13:01.005Z,7.2
2022-11-16T22:14:00.969Z,7.1
2022-11-16T22:16:01.008Z,7.2
2022-11-16T22:21:01.053Z,7.1
2022-11-16T22:24:00.948Z,7.1
2022-11-16T22:25:00.924Z,7.2
2022-11-16T22:26:00.964Z,7.1
2022-11-16T22:32:00.963Z,7.2
2022-11-16T22:35:00.935Z,7.1
2022-11-16T22:37:00.952Z,7
2022-11-16T22:38:00.958Z,7.1
2022-11-16T22:46:00.954Z,7.2
2022-11-16T22:47:00.963Z,7.1
2022-11-16T22:51:00.958Z,7.2
2022-11-16T22:53:00.996Z,7.1
2022-11-16T22:56:00.972Z,7.3
2022-11-16T22:57:00.988Z,7.1
2022-11-16T22:59:00.942Z,7.2
2022-11-16T23:00:01.250Z,7.1
2022-11-16T23:02:01.012Z,7.1
2022-11-16T23:04:00.963Z,7
2022-11-16T23:05:00.986Z,7.1
2022-11-16T23:07:01.001Z,7.2
2022-11-16T23:08:01.020Z,7.1
2022-11-16T23:14:00.976Z,7.2
2022-11-16T23:15:00.965Z,7.1
2022-11-16T23:17:00.960Z,7.2
2022-11-16T23:19:01.008Z,7.1
2022-11-16T23:23:00.975Z,7
2022-11-16T23:24:00.992Z,7.1
2022-11-16T23:26:00.976Z,7.1
2022-11-16T23:27:01.005Z,7.2
2022-11-16T23:29:00.964Z,7
2022-11-16T23:30:01.044Z,7.1
2022-11-16T23:32:00.960Z,7
2022-11-16T23:34:00.964Z,6.9
2022-11-16T23:36:00.949Z,6.8
2022-11-16T23:38:00.974Z,6.7
2022-11-16T23:39:00.998Z,6.9
2022-11-16T23:43:00.989Z,6.9
2022-11-16T23:45:01.140Z,6.7
2022-11-16T23:54:00.994Z,6.7
2022-11-16T23:55:00.966Z,6.8
2022-11-16T23:59:00.970Z,6.9
